createdAt,value
2023-04-02T00:01:01.817Z,11.35
2023-04-02T00:03:42.396Z,11.53
2023-04-02T00:06:33.614Z,11.61
2023-04-02T00:09:05.700Z,11.47
2023-04-02T00:11:35.321Z,11.44
2023-04-02T00:14:06.692Z,11.46
2023-04-02T00:16:33.434Z,11.35
2023-04-02T00:19:04.385Z,11.43
2023-04-02T00:21:33.020Z,11.41
2023-04-02T00:24:01.228Z,11.41
2023-04-02T00:26:35.076Z,11.37
2023-04-02T00:29:04.199Z,11.33
2023-04-02T00:31:31.326Z,11.29
2023-04-02T00:33:59.760Z,11.17
2023-04-02T00:36:30.218Z,11.22
2023-04-02T00:38:58.934Z,11.21
2023-04-02T00:41:29.837Z,11.10
2023-04-02T00:43:58.335Z,11.03
2023-04-02T00:46:38.126Z,11.17
2023-04-02T00:49:11.354Z,11.13
2023-04-02T00:52:07.735Z,11.32
2023-04-02T00:55:01.063Z,11.19
2023-04-02T00:57:28.295Z,11.17
2023-04-02T01:00:22.694Z,11.36
2023-04-02T01:03:17.061Z,11.34
2023-04-02T01:05:45.909Z,11.30
2023-04-02T01:08:16.948Z,11.23
2023-04-02T01:11:09.742Z,11.34
2023-04-02T01:13:40.413Z,11.22
2023-04-02T01:16:29.967Z,11.35
2023-04-02T01:19:02.580Z,11.25
2023-04-02T01:21:42.536Z,11.20
2023-04-02T01:24:13.704Z,11.34
2023-04-02T01:27:04.716Z,11.41
2023-04-02T01:29:33.887Z,11.28
2023-04-02T01:32:03.798Z,11.32
2023-04-02T01:34:30.971Z,11.13
2023-04-02T01:37:11.385Z,11.28
2023-04-02T01:39:56.281Z,11.36
2023-04-02T01:42:32.123Z,11.26
2023-04-02T01:45:09.724Z,11.26
2023-04-02T01:47:37.933Z,11.34
2023-04-02T01:50:24.076Z,11.36
2023-04-02T01:52:52.684Z,11.21
2023-04-02T01:55:28.385Z,11.34
2023-04-02T01:57:55.274Z,11.33
2023-04-02T02:00:22.734Z,11.20
2023-04-02T02:02:53.882Z,11.27
2023-04-02T02:05:23.171Z,11.38
2023-04-02T02:07:51.698Z,11.35
2023-04-02T02:10:24.454Z,11.49
2023-04-02T02:12:51.369Z,11.47
2023-04-02T02:15:20.760Z,11.36
2023-04-02T02:17:48.171Z,11.40
2023-04-02T02:20:15.010Z,11.33
2023-04-02T02:22:46.655Z,11.51
2023-04-02T02:25:19.074Z,11.49
2023-04-02T02:27:46.028Z,11.44
2023-04-02T02:30:29.234Z,11.43
2023-04-02T02:33:31.133Z,11.57
2023-04-02T02:36:25.059Z,11.47
2023-04-02T02:38:54.504Z,11.33
2023-04-02T02:41:37.732Z,11.25
2023-04-02T02:44:11.063Z,11.31
2023-04-02T02:46:41.631Z,11.27
2023-04-02T02:49:15.635Z,11.30
2023-04-02T02:51:47.323Z,11.38
2023-04-02T02:54:19.824Z,11.16
2023-04-02T02:56:51.361Z,11.25
2023-04-02T02:59:19.183Z,11.17
2023-04-02T03:01:47.401Z,11.26
2023-04-02T03:04:20.974Z,11.05
2023-04-02T03:06:50.755Z,11.12
2023-04-02T03:09:23.966Z,11.02
2023-04-02T03:12:03.928Z,11.22
2023-04-02T03:14:34.050Z,11.25
2023-04-02T03:17:15.276Z,11.22
2023-04-02T03:19:47.412Z,11.13
2023-04-02T03:22:41.483Z,11.21
2023-04-02T03:25:25.441Z,11.23
2023-04-02T03:27:59.655Z,11.16
2023-04-02T03:30:39.164Z,11.23
2023-04-02T03:33:13.314Z,11.22
2023-04-02T03:36:14.073Z,11.36
2023-04-02T03:38:43.892Z,11.13
2023-04-02T03:41:19.963Z,11.18
2023-04-02T03:43:48.056Z,11.02
2023-04-02T03:46:27.703Z,11.06
2023-04-02T03:48:59.264Z,10.98
2023-04-02T03:51:40.555Z,11.07
2023-04-02T03:54:12.942Z,11.02
2023-04-02T03:56:39.959Z,11.03
2023-04-02T03:59:31.928Z,11.20
2023-04-02T04:02:02.683Z,11.06
2023-04-02T04:04:31.826Z,11.14
2023-04-02T04:06:58.714Z,11.00
2023-04-02T04:09:37.956Z,11.09
2023-04-02T04:12:36.118Z,11.28
2023-04-02T04:15:10.032Z,11.31
2023-04-02T04:17:54.060Z,11.34
2023-04-02T04:20:30.936Z,11.22
2023-04-02T04:23:08.895Z,11.33
2023-04-02T04:25:37.206Z,11.20
2023-04-02T04:28:24.626Z,11.24
2023-04-02T04:31:04.109Z,11.11
2023-04-02T04:33:43.038Z,11.20
2023-04-02T04:36:28.770Z,11.24
2023-04-02T04:39:07.475Z,11.11
2023-04-02T04:41:38.017Z,11.04
2023-04-02T04:44:35.367Z,11.34
2023-04-02T04:47:15.980Z,11.33
2023-04-02T04:49:45.800Z,11.37
2023-04-02T04:52:33.746Z,11.50
2023-04-02T04:55:00.998Z,11.29
2023-04-02T04:57:40.167Z,11.44
2023-04-02T05:00:20.707Z,11.41
2023-04-02T05:02:52.270Z,11.49
2023-04-02T05:05:25.394Z,11.47
2023-04-02T05:07:59.837Z,11.55
2023-04-02T05:10:47.363Z,11.64
2023-04-02T05:13:19.920Z,11.55
2023-04-02T05:15:53.308Z,11.34
2023-04-02T05:18:27.513Z,11.42
2023-04-02T05:21:13.136Z,11.37
2023-04-02T05:24:10.433Z,11.51
2023-04-02T05:26:46.003Z,11.59
2023-04-02T05:29:20.765Z,11.50
2023-04-02T05:32:04.559Z,11.55
2023-04-02T05:34:34.402Z,11.54
2023-04-02T05:37:02.210Z,11.41
2023-04-02T05:39:30.167Z,11.41
2023-04-02T05:42:08.439Z,11.62
2023-04-02T05:45:05.081Z,11.75
2023-04-02T05:47:32.722Z,11.61
2023-04-02T05:50:13.705Z,11.74
2023-04-02T05:52:50.297Z,11.74
2023-04-02T05:55:16.842Z,11.69
2023-04-02T05:58:07.053Z,11.75
2023-04-02T06:00:37.353Z,11.71
2023-04-02T06:03:08.251Z,11.72
2023-04-02T06:05:40.066Z,11.79
2023-04-02T06:08:08.586Z,12.31
2023-04-02T06:10:38.057Z,11.94
2023-04-02T06:13:08.453Z,11.94
2023-04-02T06:15:42.008Z,11.88
2023-04-02T06:18:27.986Z,11.93
2023-04-02T06:20:56.259Z,11.92
2023-04-02T06:23:37.181Z,12.11
2023-04-02T06:26:19.831Z,12.20
2023-04-02T06:28:49.593Z,12.13
2023-04-02T06:31:41.261Z,12.14
2023-04-02T06:34:21.313Z,12.11
2023-04-02T06:36:58.644Z,12.05
2023-04-02T06:39:27.163Z,12.14
2023-04-02T06:42:14.999Z,12.18
2023-04-02T06:45:02.507Z,12.18
2023-04-02T06:47:48.881Z,12.24
2023-04-02T06:50:40.895Z,12.29
2023-04-02T06:53:11.682Z,12.25
2023-04-02T06:55:48.040Z,13.11
2023-04-02T06:58:19.956Z,14.36
2023-04-02T07:00:50.724Z,14.48
2023-04-02T07:03:32.218Z,15.08
2023-04-02T07:06:04.883Z,15.92
2023-04-02T07:08:33.460Z,16.50
2023-04-02T07:11:00.752Z,16.67
2023-04-02T07:13:28.089Z,18.66
2023-04-02T07:15:55.617Z,19.56
2023-04-02T07:18:33.967Z,21.77
2023-04-02T07:21:06.870Z,24.04
2023-04-02T07:23:33.667Z,21.96
2023-04-02T07:26:02.118Z,21.96
2023-04-02T07:28:29.240Z,21.96
2023-04-02T07:30:56.490Z,19.99
2023-04-02T07:33:25.441Z,19.33
2023-04-02T07:35:54.062Z,18.05
2023-04-02T07:38:20.757Z,17.18
2023-04-02T07:40:47.639Z,16.48
2023-04-02T07:43:14.237Z,16.11
2023-04-02T07:45:40.905Z,15.67
2023-04-02T07:48:12.856Z,15.44
2023-04-02T07:50:39.397Z,15.12
2023-04-02T07:53:07.234Z,14.97
2023-04-02T07:55:34.210Z,16.39
2023-04-02T07:58:00.896Z,16.60
2023-04-02T08:00:29.145Z,16.28
2023-04-02T08:02:56.370Z,15.88
2023-04-02T08:05:23.158Z,15.59
2023-04-02T08:07:54.534Z,15.32
2023-04-02T08:10:21.550Z,14.95
2023-04-02T08:12:48.531Z,14.78
2023-04-02T08:15:16.071Z,14.51
2023-04-02T08:17:43.406Z,14.39
2023-04-02T08:20:19.269Z,14.38
2023-04-02T08:22:46.808Z,14.18
2023-04-02T08:25:13.446Z,14.14
2023-04-02T08:27:40.028Z,14.15
2023-04-02T08:30:07.874Z,14.06
2023-04-02T08:32:34.752Z,14.11
2023-04-02T08:35:01.547Z,14.13
2023-04-02T08:37:28.170Z,14.09
2023-04-02T08:39:54.772Z,14.22
2023-04-02T08:42:42.829Z,14.44
2023-04-02T08:45:46.801Z,14.74
2023-04-02T08:48:15.432Z,14.66
2023-04-02T08:50:43.792Z,14.67
2023-04-02T08:53:17.606Z,14.76
2023-04-02T08:55:55.804Z,15.11
2023-04-02T08:58:32.996Z,15.14
2023-04-02T09:01:02.312Z,15.07
2023-04-02T09:03:32.455Z,15.08
2023-04-02T09:05:59.825Z,15.15
2023-04-02T09:08:27.450Z,15.04
2023-04-02T09:11:07.370Z,15.02
2023-04-02T09:13:37.513Z,14.71
2023-04-02T09:16:09.068Z,14.82
2023-04-02T09:18:36.432Z,14.65
2023-04-02T09:21:18.520Z,14.55
2023-04-02T09:23:45.091Z,14.50
2023-04-02T09:26:24.099Z,14.39
2023-04-02T09:28:51.845Z,14.33
2023-04-02T09:31:48.751Z,15.63
2023-04-02T09:34:32.683Z,17.98
2023-04-02T09:37:15.323Z,18.72
2023-04-02T09:39:41.964Z,18.08
2023-04-02T09:42:28.219Z,18.00
2023-04-02T09:45:13.133Z,18.66
2023-04-02T09:47:42.473Z,18.87
2023-04-02T09:50:21.429Z,19.15
2023-04-02T09:52:48.779Z,19.13
2023-04-02T09:55:18.659Z,19.40
2023-04-02T09:57:46.785Z,19.68
2023-04-02T10:00:31.951Z,19.79
2023-04-02T10:03:05.637Z,20.14
2023-04-02T10:05:40.678Z,20.14
2023-04-02T10:08:19.513Z,20.20
2023-04-02T10:10:49.907Z,20.65
2023-04-02T10:13:34.264Z,20.92
2023-04-02T10:16:04.611Z,20.50
2023-04-02T10:18:41.619Z,20.35
2023-04-02T10:21:11.207Z,20.28
2023-04-02T10:23:37.753Z,20.27
2023-04-02T10:26:09.935Z,20.46
2023-04-02T10:28:46.081Z,20.79
2023-04-02T10:31:22.581Z,21.10
2023-04-02T10:33:52.238Z,20.98
2023-04-02T10:36:40.497Z,20.57
2023-04-02T10:39:19.433Z,20.38
2023-04-02T10:42:10.493Z,19.51
2023-04-02T10:45:10.913Z,19.50
2023-04-02T10:47:48.510Z,19.21
2023-04-02T10:50:29.563Z,19.12
2023-04-02T10:53:12.069Z,19.21
2023-04-02T10:55:43.846Z,19.08
2023-04-02T10:58:38.572Z,19.42
2023-04-02T11:01:16.998Z,19.78
2023-04-02T11:03:47.709Z,19.99
2023-04-02T11:06:20.532Z,20.45
2023-04-02T11:08:49.662Z,20.43
2023-04-02T11:11:38.436Z,20.20
2023-04-02T11:14:14.848Z,20.29
2023-04-02T11:16:44.573Z,20.22
2023-04-02T11:19:14.592Z,20.11
2023-04-02T11:21:55.502Z,20.06
2023-04-02T11:24:33.953Z,20.14
2023-04-02T11:27:14.342Z,19.93
2023-04-02T11:29:48.146Z,19.60
2023-04-02T11:32:20.745Z,19.32
2023-04-02T11:34:49.548Z,19.02
2023-04-02T11:37:41.135Z,18.85
2023-04-02T11:40:07.770Z,18.48
2023-04-02T11:42:36.142Z,18.18
2023-04-02T11:45:21.350Z,18.18
2023-04-02T11:48:17.301Z,18.14
2023-04-02T11:50:45.365Z,17.80
2023-04-02T11:53:11.939Z,17.84
2023-04-02T11:56:05.212Z,17.97
2023-04-02T11:58:49.498Z,17.97
2023-04-02T12:01:25.040Z,18.11
2023-04-02T12:04:28.226Z,18.63
2023-04-02T12:07:34.919Z,18.66
2023-04-02T12:10:15.459Z,18.51
2023-04-02T12:12:43.140Z,18.50
2023-04-02T12:15:31.565Z,18.82
2023-04-02T12:18:24.589Z,19.04
2023-04-02T12:20:53.478Z,18.72
2023-04-02T12:23:23.015Z,18.72
2023-04-02T12:26:01.714Z,18.87
2023-04-02T12:28:29.979Z,18.71
2023-04-02T12:31:13.371Z,18.83
2023-04-02T12:33:41.192Z,18.56
2023-04-02T12:36:19.356Z,18.70
2023-04-02T12:38:52.653Z,18.42
2023-04-02T12:41:24.965Z,18.27
2023-04-02T12:44:15.552Z,18.49
2023-04-02T12:46:42.594Z,18.24
2023-04-02T12:49:25.253Z,18.18
2023-04-02T12:51:52.144Z,17.98
2023-04-02T12:54:20.471Z,18.12
2023-04-02T12:56:48.537Z,18.75
2023-04-02T12:59:29.865Z,19.64
2023-04-02T13:01:59.080Z,19.93
2023-04-02T13:04:26.458Z,20.11
2023-04-02T13:06:56.351Z,20.24
2023-04-02T13:09:52.780Z,20.62
2023-04-02T13:12:28.207Z,20.27
2023-04-02T13:14:59.557Z,19.82
2023-04-02T13:17:44.427Z,19.76
2023-04-02T13:20:38.823Z,19.25
2023-04-02T13:23:30.304Z,19.82
2023-04-02T13:26:01.260Z,20.58
2023-04-02T13:28:28.935Z,20.28
2023-04-02T13:30:55.534Z,20.36
2023-04-02T13:33:22.055Z,20.41
2023-04-02T13:35:48.670Z,20.09
2023-04-02T13:38:15.336Z,19.83
2023-04-02T13:40:41.937Z,19.62
2023-04-02T13:43:17.298Z,19.49
2023-04-02T13:45:45.963Z,19.31
2023-04-02T13:48:15.977Z,19.55
2023-04-02T13:50:42.724Z,19.76
2023-04-02T13:53:16.164Z,19.93
2023-04-02T13:55:42.910Z,19.47
2023-04-02T13:58:10.650Z,19.43
2023-04-02T14:00:37.898Z,19.50
2023-04-02T14:03:08.625Z,19.40
2023-04-02T14:05:44.591Z,19.26
2023-04-02T14:08:56.983Z,19.15
2023-04-02T14:11:28.665Z,18.68
2023-04-02T14:14:36.154Z,18.70
2023-04-02T14:17:25.899Z,18.60
2023-04-02T14:20:03.176Z,18.69
2023-04-02T14:22:39.405Z,18.85
2023-04-02T14:25:23.138Z,18.75
2023-04-02T14:27:58.608Z,18.45
2023-04-02T14:30:49.931Z,18.66
2023-04-02T14:33:34.993Z,18.77
2023-04-02T14:36:24.048Z,18.81
2023-04-02T14:39:12.788Z,18.44
2023-04-02T14:41:52.554Z,18.48
2023-04-02T14:44:22.757Z,18.25
2023-04-02T14:46:50.045Z,18.10
2023-04-02T14:49:24.411Z,18.06
2023-04-02T14:52:00.747Z,17.93
2023-04-02T14:54:33.525Z,17.57
2023-04-02T14:57:16.953Z,17.74
2023-04-02T15:00:07.378Z,17.55
2023-04-02T15:02:42.555Z,17.48
2023-04-02T15:05:14.471Z,17.38
2023-04-02T15:07:45.857Z,17.25
2023-04-02T15:10:32.206Z,17.48
2023-04-02T15:13:00.661Z,17.16
2023-04-02T15:15:40.629Z,16.99
2023-04-02T15:18:16.310Z,16.84
2023-04-02T15:21:03.262Z,16.84
2023-04-02T15:23:38.321Z,16.63
2023-04-02T15:26:12.835Z,16.64
2023-04-02T15:28:47.684Z,16.49
2023-04-02T15:31:14.966Z,16.29
2023-04-02T15:33:46.028Z,16.38
2023-04-02T15:36:38.363Z,16.49
2023-04-02T15:39:12.840Z,16.33
2023-04-02T15:41:56.166Z,16.37
2023-04-02T15:44:23.698Z,16.20
2023-04-02T15:47:15.475Z,16.42
2023-04-02T15:49:47.377Z,16.14
2023-04-02T15:52:40.105Z,16.08
2023-04-02T15:55:28.679Z,15.91
2023-04-02T15:58:07.276Z,15.82
2023-04-02T16:00:44.899Z,15.76
2023-04-02T16:03:34.134Z,15.53
2023-04-02T16:06:21.115Z,15.50
2023-04-02T16:08:57.331Z,15.52
2023-04-02T16:11:25.811Z,15.47
2023-04-02T16:13:58.399Z,15.61
2023-04-02T16:16:36.081Z,15.64
2023-04-02T16:19:16.001Z,15.37
2023-04-02T16:21:50.214Z,15.45
2023-04-02T16:24:16.771Z,15.34
2023-04-02T16:27:18.525Z,15.23
2023-04-02T16:29:58.185Z,15.29
2023-04-02T16:32:30.345Z,15.20
2023-04-02T16:35:41.262Z,15.38
2023-04-02T16:38:19.108Z,15.29
2023-04-02T16:41:07.045Z,15.12
2023-04-02T16:43:48.049Z,15.11
2023-04-02T16:47:02.548Z,15.10
2023-04-02T16:49:45.362Z,14.83
2023-04-02T16:52:32.913Z,14.66
2023-04-02T16:55:30.208Z,14.81
2023-04-02T16:58:19.432Z,14.58
2023-04-02T17:00:53.362Z,14.46
2023-04-02T17:03:41.954Z,14.41
2023-04-02T17:06:29.642Z,14.35
2023-04-02T17:09:27.311Z,14.25
2023-04-02T17:12:17.555Z,14.35
2023-04-02T17:14:52.318Z,14.31
2023-04-02T17:17:20.567Z,14.10
2023-04-02T17:19:48.817Z,14.03
2023-04-02T17:22:21.320Z,13.96
2023-04-02T17:24:53.835Z,13.94
2023-04-02T17:27:26.035Z,13.75
2023-04-02T17:29:55.950Z,13.73
2023-04-02T17:32:32.452Z,13.61
2023-04-02T17:35:18.152Z,13.78
2023-04-02T17:37:52.727Z,13.49
2023-04-02T17:40:22.606Z,13.34
2023-04-02T17:43:15.680Z,13.30
2023-04-02T17:45:44.984Z,13.12
2023-04-02T17:48:43.644Z,13.31
2023-04-02T17:51:30.189Z,13.14
2023-04-02T17:54:05.981Z,13.06
2023-04-02T17:57:00.613Z,13.24
2023-04-02T17:59:58.231Z,12.90
2023-04-02T18:02:58.354Z,12.87
2023-04-02T18:05:32.779Z,12.81
2023-04-02T18:08:15.834Z,12.89
2023-04-02T18:11:05.061Z,12.73
2023-04-02T18:13:41.110Z,12.71
2023-04-02T18:16:13.785Z,12.55
2023-04-02T18:19:03.577Z,12.58
2023-04-02T18:21:47.082Z,12.58
2023-04-02T18:24:48.828Z,12.63
2023-04-02T18:27:18.217Z,12.39
2023-04-02T18:30:24.169Z,12.55
2023-04-02T18:33:08.229Z,12.51
2023-04-02T18:35:59.963Z,12.58
2023-04-02T18:39:00.128Z,12.62
2023-04-02T18:41:44.540Z,12.37
2023-04-02T18:44:32.484Z,12.38
2023-04-02T18:47:23.587Z,12.39
2023-04-02T18:50:13.285Z,12.17
2023-04-02T18:52:41.458Z,12.12
2023-04-02T18:55:15.639Z,12.03
2023-04-02T18:57:42.964Z,12.04
2023-04-02T19:00:19.572Z,11.91
2023-04-02T19:03:04.134Z,11.92
2023-04-02T19:05:51.772Z,12.01
2023-04-02T19:08:27.271Z,12.01
2023-04-02T19:10:59.235Z,11.89
2023-04-02T19:13:26.317Z,11.68
2023-04-02T19:15:58.666Z,11.74
2023-04-02T19:18:46.988Z,11.68
2023-04-02T19:21:32.235Z,11.69
2023-04-02T19:24:14.057Z,11.69
2023-04-02T19:26:54.383Z,11.74
2023-04-02T19:29:27.888Z,11.71
2023-04-02T19:32:16.897Z,11.66
2023-04-02T19:34:52.507Z,11.61
2023-04-02T19:37:30.050Z,11.52
2023-04-02T19:40:23.709Z,11.63
2023-04-02T19:42:51.969Z,11.37
2023-04-02T19:45:29.183Z,11.36
2023-04-02T19:47:56.765Z,11.28
2023-04-02T19:50:23.405Z,11.21
2023-04-02T19:52:50.094Z,11.17
2023-04-02T19:55:16.607Z,11.08
2023-04-02T19:57:43.260Z,11.03
2023-04-02T20:00:14.005Z,11.07
2023-04-02T20:02:40.582Z,11.06
2023-04-02T20:05:07.606Z,11.02
2023-04-02T20:07:34.122Z,10.98
2023-04-02T20:10:00.626Z,10.98
2023-04-02T20:12:27.176Z,10.91
2023-04-02T20:14:53.700Z,10.93
2023-04-02T20:17:20.261Z,10.95
2023-04-02T20:19:46.798Z,10.98
2023-04-02T20:22:13.452Z,10.92
2023-04-02T20:24:41.023Z,10.88
2023-04-02T20:27:07.618Z,10.84
2023-04-02T20:29:34.086Z,10.74
2023-04-02T20:32:00.637Z,10.80
2023-04-02T20:34:27.193Z,10.74
2023-04-02T20:36:53.876Z,10.75
2023-04-02T20:39:21.424Z,10.67
2023-04-02T20:41:48.191Z,10.63
2023-04-02T20:44:14.690Z,10.62
2023-04-02T20:46:41.548Z,10.58
2023-04-02T20:49:08.152Z,10.55
2023-04-02T20:51:34.631Z,10.52
2023-04-02T20:54:01.364Z,10.53
2023-04-02T20:56:27.941Z,10.52
2023-04-02T20:58:54.502Z,10.52
2023-04-02T21:01:26.492Z,10.60
2023-04-02T21:03:57.747Z,10.46
2023-04-02T21:06:26.302Z,10.50
2023-04-02T21:08:53.167Z,10.40
2023-04-02T21:11:20.055Z,10.36
2023-04-02T21:13:46.661Z,10.40
2023-04-02T21:16:16.123Z,10.38
2023-04-02T21:18:43.360Z,10.29
2023-04-02T21:21:13.608Z,10.09
2023-04-02T21:23:41.061Z,10.16
2023-04-02T21:26:09.885Z,10.17
2023-04-02T21:28:36.834Z,10.13
2023-04-02T21:31:05.863Z,10.03
2023-04-02T21:33:37.099Z,10.10
2023-04-02T21:36:14.559Z,10.00
2023-04-02T21:38:45.671Z,9.99
2023-04-02T21:41:19.302Z,10.34
2023-04-02T21:43:48.649Z,9.97
2023-04-02T21:46:16.512Z,9.94
2023-04-02T21:48:43.443Z,9.86
2023-04-02T21:51:15.668Z,9.88
2023-04-02T21:53:42.705Z,9.72
2023-04-02T21:56:12.946Z,9.78
2023-04-02T21:58:39.536Z,9.78
2023-04-02T22:01:11.198Z,9.58
2023-04-02T22:03:41.126Z,9.63
2023-04-02T22:06:12.475Z,9.60
2023-04-02T22:08:39.837Z,9.78
2023-04-02T22:11:14.408Z,9.87
2023-04-02T22:13:41.746Z,9.85
2023-04-02T22:16:13.898Z,9.87
2023-04-02T22:18:40.928Z,9.66
2023-04-02T22:21:08.149Z,9.60
2023-04-02T22:23:35.529Z,9.60
2023-04-02T22:26:02.341Z,9.56
2023-04-02T22:28:29.175Z,9.61
2023-04-02T22:30:56.305Z,9.56
2023-04-02T22:33:22.824Z,9.52
2023-04-02T22:35:51.711Z,9.41
2023-04-02T22:38:19.033Z,9.43
2023-04-02T22:40:45.900Z,9.22
2023-04-02T22:43:12.477Z,9.13
2023-04-02T22:45:39.019Z,9.33
2023-04-02T22:48:05.593Z,9.35
2023-04-02T22:50:32.118Z,9.34
2023-04-02T22:52:58.676Z,9.38
2023-04-02T22:55:25.374Z,9.37
2023-04-02T22:57:51.843Z,9.39
2023-04-02T23:00:18.758Z,9.36
2023-04-02T23:02:45.711Z,9.19
2023-04-02T23:05:12.515Z,9.34
2023-04-02T23:07:39.082Z,9.07
2023-04-02T23:10:06.026Z,9.30
2023-04-02T23:12:32.528Z,9.29
2023-04-02T23:14:59.737Z,9.33
2023-04-02T23:17:26.497Z,9.35
2023-04-02T23:19:53.002Z,9.37
2023-04-02T23:22:19.498Z,9.41
2023-04-02T23:24:45.985Z,9.35
2023-04-02T23:27:12.482Z,9.42
2023-04-02T23:29:38.980Z,9.38
2023-04-02T23:32:05.871Z,9.29
2023-04-02T23:34:32.357Z,9.36
2023-04-02T23:36:58.856Z,9.26
2023-04-02T23:39:25.356Z,9.29
2023-04-02T23:41:51.876Z,9.27
2023-04-02T23:44:18.457Z,9.29
2023-04-02T23:46:45.080Z,9.23
2023-04-02T23:49:13.072Z,9.26
2023-04-02T23:51:40.658Z,9.28
2023-04-02T23:54:07.624Z,9.18
2023-04-02T23:56:34.142Z,9.21
2023-04-02T23:59:00.808Z,9.22
